Terminal Aerodrome Forecast
Issued by NWS Lake Charles, LA

Home | Current Version | Previous Version | Text Only | Print | Product List | Glossary On
Versions: 1 2 3 4 5 6 7 8 9 10 11 12 13 14 15 16 17 18 19 20
054
FTUS44 KLCH 242320
TAFLCH
TAF
KLCH 242320Z 2500/2524 15008KT P6SM FEW025 SCT035
     FM251100 13005KT P6SM FEW012 SCT025
     FM251300 15010KT P6SM SCT015 BKN025
     FM251600 17013G20KT P6SM SCT025 BKN035=

USA.gov is the U.S. government's official web portal to all federal, state and local government web resources and services.